Time;durP1;ratioP1;P1;durP2;ratioP2;P2;SDS_P1;SDS_P2;PMS_P1;PMS_P2;Temp;Humidity;BMP_temperature;BMP_pressure;BME280_temperature;BME280_humidity;BME280_pressure;Samples;Min_cycle;Max_cycle;Signal;HPM_P1;HPM_P2
2021/10/26 00:00:10;;;;;;;14.50;9.40;;;;;;;3.77;42.52;102216.56;117370;1185;23462;-61
2021/10/26 00:02:39;;;;;;;17.20;9.40;;;;;;;3.76;42.57;102213.21;117459;1186;24223;-61
2021/10/26 00:05:07;;;;;;;15.10;9.40;;;;;;;3.76;42.57;102210.08;117483;1179;23594;-61
2021/10/26 00:07:36;;;;;;;14.80;10.00;;;;;;;3.76;42.62;102211.83;117558;1179;23465;-58
2021/10/26 00:10:12;;;;;;;14.50;9.20;;;;;;;3.77;42.77;102208.05;117406;1179;21841;-60
2021/10/26 00:12:40;;;;;;;14.00;9.30;;;;;;;3.78;42.84;102207.38;117435;1186;23442;-61
2021/10/26 00:15:09;;;;;;;16.30;9.90;;;;;;;3.77;42.57;102207.36;117363;1185;21851;-58
2021/10/26 00:17:37;;;;;;;15.50;9.20;;;;;;;3.79;42.55;102203.10;117406;1180;23442;-59
2021/10/26 00:20:06;;;;;;;13.70;8.80;;;;;;;3.79;42.83;102206.05;117437;1185;21991;-58
2021/10/26 00:22:35;;;;;;;13.80;9.00;;;;;;;3.80;42.68;102206.08;117439;1179;22909;-57
2021/10/26 00:25:04;;;;;;;16.10;9.00;;;;;;;3.78;42.83;102203.57;117342;1183;24144;-61
2021/10/26 00:27:33;;;;;;;18.10;10.10;;;;;;;3.76;42.79;102198.96;117341;1186;23490;-59
2021/10/26 00:30:01;;;;;;;14.40;9.50;;;;;;;3.73;42.74;102199.90;117325;1185;21867;-61
2021/10/26 00:32:30;;;;;;;17.20;9.80;;;;;;;3.70;42.68;102198.21;117328;1181;21861;-61
2021/10/26 00:34:58;;;;;;;16.10;9.00;;;;;;;3.68;42.73;102197.25;117362;1185;23551;-58
2021/10/26 00:37:27;;;;;;;14.20;8.90;;;;;;;3.67;42.90;102195.98;117373;1183;21999;-58
2021/10/26 00:39:55;;;;;;;15.90;9.40;;;;;;;3.65;42.82;102190.48;117380;1185;22781;-60
2021/10/26 00:42:23;;;;;;;15.80;9.20;;;;;;;3.64;42.83;102190.10;117348;1183;21897;-59
2021/10/26 00:44:51;;;;;;;14.10;9.00;;;;;;;3.63;42.81;102190.08;117452;1186;23450;-61
2021/10/26 00:47:19;;;;;;;14.60;9.00;;;;;;;3.64;42.84;102187.33;117392;1185;23631;-58
2021/10/26 00:49:48;;;;;;;14.90;9.40;;;;;;;3.63;42.80;102187.27;117504;1184;23468;-61
2021/10/26 00:52:17;;;;;;;17.10;9.10;;;;;;;3.63;43.03;102186.75;117428;1182;23648;-58
2021/10/26 00:54:45;;;;;;;18.10;9.40;;;;;;;3.61;42.91;102188.25;117455;1183;22030;-61
2021/10/26 00:57:21;;;;;;;14.30;9.20;;;;;;;3.58;42.80;102185.66;117370;1183;21895;-61
2021/10/26 00:59:49;;;;;;;15.00;9.40;;;;;;;3.54;42.96;102187.77;117489;1183;23511;-58
2021/10/26 01:02:17;;;;;;;15.30;9.00;;;;;;;3.53;42.81;102185.64;117482;1185;22911;-61
2021/10/26 01:04:46;;;;;;;16.10;9.50;;;;;;;3.51;42.88;102182.23;117451;1185;22081;-58
2021/10/26 01:07:15;;;;;;;17.90;10.00;;;;;;;3.48;42.84;102186.43;117472;1184;23605;-56
2021/10/26 01:09:44;;;;;;;16.00;9.60;;;;;;;3.45;42.99;102189.09;117458;1183;23564;-61
2021/10/26 01:12:13;;;;;;;14.90;9.70;;;;;;;3.42;42.95;102187.41;117473;1182;22827;-60
2021/10/26 01:14:42;;;;;;;17.00;9.70;;;;;;;3.40;42.98;102190.61;117484;1185;21868;-61
2021/10/26 01:17:11;;;;;;;15.90;9.70;;;;;;;3.39;42.95;102190.67;117420;1185;23569;-56
2021/10/26 01:19:46;;;;;;;18.30;9.80;;;;;;;3.38;43.14;102191.72;117605;1185;21856;-60
2021/10/26 01:22:15;;;;;;;16.50;11.20;;;;;;;3.37;43.12;102190.29;117534;1182;22879;-57
2021/10/26 01:24:43;;;;;;;17.50;9.90;;;;;;;3.37;43.13;102187.49;117547;1185;21854;-57
2021/10/26 01:27:12;;;;;;;18.80;10.20;;;;;;;3.36;43.22;102184.67;117521;1186;23442;-57
2021/10/26 01:29:41;;;;;;;18.70;10.50;;;;;;;3.35;42.91;102183.94;117467;1184;22912;-61
2021/10/26 01:32:10;;;;;;;16.60;9.90;;;;;;;3.36;43.06;102175.64;117435;1182;21861;-61
2021/10/26 01:34:38;;;;;;;16.30;9.50;;;;;;;3.37;43.09;102173.23;117372;1180;22924;-56
2021/10/26 01:37:08;;;;;;;15.60;9.90;;;;;;;3.38;43.03;102169.66;117420;1183;23442;-61
2021/10/26 01:39:39;;;;;;;17.10;9.80;;;;;;;3.38;43.06;102169.16;117408;1183;23442;-57
2021/10/26 01:42:08;;;;;;;16.60;10.30;;;;;;;3.37;43.08;102167.89;117434;1185;21845;-61
2021/10/26 01:44:37;;;;;;;15.10;10.00;;;;;;;3.36;43.26;102164.18;117464;1185;22613;-61
2021/10/26 01:47:05;;;;;;;14.20;9.60;;;;;;;3.37;43.22;102166.15;117422;1182;24163;-57
2021/10/26 01:49:35;;;;;;;14.60;8.80;;;;;;;3.38;43.22;102163.08;117406;1186;23486;-56
2021/10/26 01:52:04;;;;;;;13.20;8.30;;;;;;;3.38;43.21;102161.34;117394;1186;23550;-57
2021/10/26 01:54:36;;;;;;;14.10;9.30;;;;;;;3.38;43.18;102162.05;117479;1183;23464;-57
2021/10/26 01:57:05;;;;;;;18.40;9.40;;;;;;;3.39;43.16;102158.60;117437;1185;22911;-57
2021/10/26 01:59:33;;;;;;;17.30;10.10;;;;;;;3.38;43.18;102159.45;117433;1182;23468;-57
2021/10/26 02:02:02;;;;;;;17.20;10.00;;;;;;;3.38;43.28;102157.33;117432;1185;24165;-57
2021/10/26 02:04:30;;;;;;;18.80;10.10;;;;;;;3.38;43.25;102161.67;117447;1186;24300;-62
2021/10/26 02:06:59;;;;;;;14.90;8.90;;;;;;;3.37;43.51;102158.86;117480;1185;22671;-62
2021/10/26 02:09:27;;;;;;;16.30;9.80;;;;;;;3.36;43.28;102156.05;117412;1184;23465;-57
2021/10/26 02:11:56;;;;;;;12.20;8.30;;;;;;;3.36;43.19;102157.23;117526;1183;21855;-61
2021/10/26 02:14:33;;;;;;;13.20;8.70;;;;;;;3.36;43.29;102156.17;117597;1183;23451;-62
2021/10/26 02:17:03;;;;;;;15.70;9.60;;;;;;;3.34;43.40;102156.47;117389;1183;21848;-57
2021/10/26 02:19:32;;;;;;;18.00;9.20;;;;;;;3.33;43.49;102155.39;117425;1183;22919;-57
2021/10/26 02:22:00;;;;;;;12.00;8.20;;;;;;;3.32;43.38;102155.33;117516;1185;21927;-62
2021/10/26 02:24:28;;;;;;;12.90;8.20;;;;;;;3.31;43.34;102153.89;117442;1182;23471;-63
2021/10/26 02:26:57;;;;;;;14.00;8.60;;;;;;;3.30;43.27;102155.23;117357;1179;23451;-58
2021/10/26 02:29:26;;;;;;;16.00;10.20;;;;;;;3.28;43.36;102155.35;117451;1183;23448;-62
2021/10/26 02:31:54;;;;;;;14.70;9.10;;;;;;;3.27;43.30;102158.23;117391;1183;21845;-61
2021/10/26 02:34:23;;;;;;;15.70;9.20;;;;;;;3.24;43.27;102157.27;117498;1184;22905;-59
2021/10/26 02:36:52;;;;;;;15.80;9.30;;;;;;;3.22;43.43;102154.01;117424;1180;21867;-62
2021/10/26 02:39:20;;;;;;;14.80;9.20;;;;;;;3.21;43.38;102160.02;117589;1183;23091;-57
2021/10/26 02:41:48;;;;;;;15.70;10.30;;;;;;;3.20;43.41;102163.96;117523;1175;23442;-62
2021/10/26 02:44:18;;;;;;;14.20;8.90;;;;;;;3.17;43.46;102164.04;117550;1186;23445;-57
2021/10/26 02:46:46;;;;;;;13.70;8.10;;;;;;;3.15;43.46;102161.49;117427;1183;21845;-57
2021/10/26 02:49:14;;;;;;;14.00;8.80;;;;;;;3.12;43.21;102166.23;117475;1184;23461;-57
2021/10/26 02:51:43;;;;;;;14.80;9.60;;;;;;;3.11;43.21;102160.61;117533;1186;21863;-61
2021/10/26 02:54:11;;;;;;;14.20;8.90;;;;;;;3.10;43.33;102158.69;117587;1176;23520;-57
2021/10/26 02:56:41;;;;;;;13.50;8.20;;;;;;;3.09;43.46;102162.61;117349;1184;23220;-57
2021/10/26 02:59:10;;;;;;;16.80;9.30;;;;;;;3.07;43.40;102162.52;117455;1185;22313;-56
2021/10/26 03:01:38;;;;;;;15.60;9.60;;;;;;;3.04;43.32;102161.88;117371;1183;23567;-57
2021/10/26 03:04:07;;;;;;;14.70;8.90;;;;;;;3.03;43.55;102161.11;117512;1185;23461;-62
2021/10/26 03:06:35;;;;;;;14.40;8.70;;;;;;;3.02;43.46;102159.86;117401;1176;21850;-57
2021/10/26 03:09:04;;;;;;;13.90;8.90;;;;;;;3.00;43.49;102159.24;117406;1185;23465;-57
2021/10/26 03:11:32;;;;;;;15.10;9.40;;;;;;;2.97;43.50;102155.30;117350;1182;23469;-62
2021/10/26 03:14:01;;;;;;;15.30;8.80;;;;;;;2.97;43.57;102153.56;117359;1183;21846;-62
2021/10/26 03:16:29;;;;;;;18.20;8.80;;;;;;;2.98;43.65;102152.55;117345;1186;22902;-57
2021/10/26 03:18:57;;;;;;;16.80;9.60;;;;;;;2.97;43.59;102158.25;117453;1186;23469;-57
2021/10/26 03:21:25;;;;;;;16.60;9.30;;;;;;;2.97;43.62;102157.39;117519;1185;21873;-62
2021/10/26 03:23:54;;;;;;;16.00;8.90;;;;;;;2.98;43.67;102156.02;117585;1183;21845;-62
2021/10/26 03:26:22;;;;;;;18.80;9.70;;;;;;;3.02;43.76;102151.16;117548;1185;23442;-57
2021/10/26 03:28:50;;;;;;;18.10;9.10;;;;;;;3.04;43.66;102149.90;117522;1185;23442;-62
2021/10/26 03:31:19;;;;;;;19.00;10.60;;;;;;;3.05;43.58;102148.23;117528;1186;21984;-62
2021/10/26 03:33:47;;;;;;;15.60;9.10;;;;;;;3.05;43.49;102148.55;117542;1186;21857;-62
2021/10/26 03:36:17;;;;;;;15.50;9.00;;;;;;;3.06;43.49;102143.71;117538;1184;22959;-61
2021/10/26 03:38:45;;;;;;;18.00;8.80;;;;;;;3.05;43.87;102142.66;117528;1184;21856;-57
2021/10/26 03:41:14;;;;;;;17.10;8.70;;;;;;;3.06;43.72;102138.73;117555;1180;22905;-57
2021/10/26 03:43:43;;;;;;;23.30;8.80;;;;;;;3.11;43.84;102140.48;117512;1185;23468;-60
2021/10/26 03:46:12;;;;;;;17.20;9.30;;;;;;;3.18;43.78;102135.80;117501;1186;21861;-62
2021/10/26 03:48:43;;;;;;;19.20;8.80;;;;;;;3.24;44.03;102131.40;117549;1182;22963;-58
2021/10/26 03:51:12;;;;;;;20.70;10.80;;;;;;;3.29;43.94;102133.67;117520;1183;23472;-61
2021/10/26 03:53:40;;;;;;;17.80;9.40;;;;;;;3.33;44.03;102134.16;117515;1186;23079;-58
2021/10/26 03:56:09;;;;;;;14.70;9.20;;;;;;;3.33;44.08;102138.55;117537;1185;24242;-61
2021/10/26 03:58:41;;;;;;;16.40;9.20;;;;;;;3.32;44.00;102134.34;117677;1180;23442;-61
2021/10/26 04:01:11;;;;;;;15.80;8.80;;;;;;;3.32;44.06;102134.36;117430;1182;21930;-58
2021/10/26 04:03:39;;;;;;;16.70;8.50;;;;;;;3.34;43.88;102132.70;117480;1184;21851;-57
2021/10/26 04:06:13;;;;;;;16.40;9.30;;;;;;;3.34;43.91;102133.05;117407;1179;23111;-57
2021/10/26 04:11:22;;;;;;;15.00;9.30;;;;;;;3.29;43.84;102135.08;117398;1182;23184;-57
2021/10/26 04:13:50;;;;;;;16.40;9.50;;;;;;;3.22;43.82;102133.20;117453;1182;22925;-57
2021/10/26 04:16:19;;;;;;;16.80;8.90;;;;;;;3.18;43.65;102133.02;117457;1186;21854;-61
2021/10/26 04:18:48;;;;;;;19.20;7.80;;;;;;;3.18;43.78;102135.77;117549;1182;23469;-58
2021/10/26 04:21:17;;;;;;;18.70;8.80;;;;;;;3.16;43.62;102134.48;117548;1183;23465;-57
2021/10/26 04:23:50;;;;;;;14.80;8.70;;;;;;;3.12;43.74;102128.08;117544;1185;22912;-61
2021/10/26 04:26:19;;;;;;;14.60;8.30;;;;;;;3.09;43.77;102131.38;117525;1182;22744;-61
2021/10/26 04:28:47;;;;;;;18.10;8.20;;;;;;;3.08;43.86;102130.83;117485;1182;23547;-58
2021/10/26 04:31:16;;;;;;;15.80;8.60;;;;;;;3.09;44.04;102125.48;117477;1182;22886;-58
2021/10/26 04:33:44;;;;;;;17.70;8.30;;;;;;;3.10;43.95;102125.36;117381;1186;21854;-60
2021/10/26 04:36:13;;;;;;;14.20;8.60;;;;;;;3.10;43.91;102120.65;117385;1185;21867;-60
2021/10/26 04:38:41;;;;;;;13.70;8.60;;;;;;;3.09;43.83;102124.64;117333;1185;21857;-60
2021/10/26 04:41:11;;;;;;;14.20;8.60;;;;;;;3.12;43.94;102125.09;117480;1180;21845;-61
2021/10/26 04:43:39;;;;;;;14.50;7.70;;;;;;;3.14;44.07;102126.75;117500;1186;21852;-61
2021/10/26 04:46:08;;;;;;;17.50;7.70;;;;;;;3.16;44.10;102126.83;117417;1183;21848;-61
2021/10/26 04:48:36;;;;;;;14.20;8.00;;;;;;;3.19;44.12;102125.59;117416;1186;23618;-60
2021/10/26 04:51:04;;;;;;;15.70;8.10;;;;;;;3.21;44.21;102129.53;117381;1182;23474;-60
2021/10/26 04:53:32;;;;;;;16.00;8.70;;;;;;;3.24;44.11;102134.84;117401;1185;23473;-58
2021/10/26 04:56:04;;;;;;;16.60;8.90;;;;;;;3.27;44.12;102138.65;117313;1176;23439;-57
2021/10/26 04:58:35;;;;;;;14.80;8.40;;;;;;;3.32;44.10;102137.97;117566;1185;21899;-61
2021/10/26 05:01:06;;;;;;;15.00;7.90;;;;;;;3.36;44.31;102137.12;117479;1183;21851;-58
2021/10/26 05:03:36;;;;;;;13.80;8.10;;;;;;;3.42;44.34;102136.20;117531;1182;23566;-57
2021/10/26 05:06:09;;;;;;;14.80;8.60;;;;;;;3.47;44.22;102138.68;117513;1182;21842;-62
2021/10/26 05:08:52;;;;;;;19.00;9.00;;;;;;;3.54;44.37;102142.27;117442;1185;21856;-58
2021/10/26 05:11:21;;;;;;;22.40;8.30;;;;;;;3.60;44.38;102140.79;117519;1175;23469;-61
2021/10/26 05:13:49;;;;;;;16.80;7.70;;;;;;;3.66;44.41;102142.11;117467;1185;21845;-61
2021/10/26 05:16:18;;;;;;;24.00;9.60;;;;;;;3.75;44.45;102142.33;117506;1186;21924;-61
2021/10/26 05:19:00;;;;;;;21.70;9.80;;;;;;;3.83;44.53;102140.94;117407;1182;24132;-61
2021/10/26 05:21:34;;;;;;;21.70;9.80;;;;;;;3.93;44.59;102144.50;117381;1182;21842;-61
2021/10/26 05:24:10;;;;;;;;;;;;;;;4.04;44.54;102146.17;117357;1182;24158;-61
2021/10/26 05:26:39;;;;;;;19.10;8.30;;;;;;;4.15;44.81;102149.24;117385;1184;21857;-58
2021/10/26 05:29:13;;;;;;;20.10;9.10;;;;;;;4.26;44.74;102151.29;117345;1183;22912;-61
2021/10/26 05:31:59;;;;;;;19.10;8.90;;;;;;;4.40;44.69;102145.77;117691;1185;21875;-59
2021/10/26 05:34:40;;;;;;;16.50;8.30;;;;;;;4.53;44.70;102147.67;117075;1185;23561;-60
2021/10/26 05:37:12;;;;;;;17.40;8.90;;;;;;;4.63;44.89;102140.27;117301;1185;21886;-59
2021/10/26 05:39:41;;;;;;;16.40;8.60;;;;;;;4.76;45.14;102140.27;117546;1183;21865;-55
2021/10/26 05:42:09;;;;;;;13.30;8.00;;;;;;;4.89;45.11;102144.76;117358;1185;21917;-58
2021/10/26 05:44:38;;;;;;;13.40;7.80;;;;;;;5.02;45.04;102143.90;117341;1182;24150;-62
2021/10/26 05:47:06;;;;;;;13.60;7.60;;;;;;;5.17;44.86;102138.89;117307;1186;23531;-58
2021/10/26 05:49:36;;;;;;;21.30;11.10;;;;;;;5.32;45.21;102138.23;119002;1185;23487;-58
2021/10/26 05:52:04;;;;;;;17.50;10.90;;;;;;;5.48;45.42;102137.44;118202;1186;23548;-58
2021/10/26 05:54:34;;;;;;;21.80;11.30;;;;;;;5.62;44.79;102135.85;117379;1182;23442;-58
2021/10/26 05:57:02;;;;;;;18.10;10.40;;;;;;;5.78;45.50;102134.67;117311;1185;21879;-61
2021/10/26 05:59:31;;;;;;;19.50;9.70;;;;;;;5.96;45.44;102134.80;117372;1185;21858;-58
2021/10/26 06:01:59;;;;;;;22.80;10.70;;;;;;;6.15;45.36;102136.16;117343;1186;23566;-60
2021/10/26 06:04:28;;;;;;;13.00;8.70;;;;;;;6.33;45.39;102137.10;117413;1183;22961;-60
2021/10/26 06:06:56;;;;;;;17.30;9.10;;;;;;;6.50;45.14;102138.02;117311;1186;24151;-61
2021/10/26 06:09:28;;;;;;;15.80;9.00;;;;;;;6.67;45.65;102135.08;117330;1185;21858;-61
2021/10/26 06:11:59;;;;;;;18.40;10.00;;;;;;;6.84;45.43;102137.33;117292;1186;23547;-62
2021/10/26 06:14:27;;;;;;;19.00;11.60;;;;;;;7.01;45.56;102138.73;117187;1188;22321;-62
2021/10/26 06:16:56;;;;;;;17.20;11.30;;;;;;;7.18;45.50;102131.02;117370;1186;23570;-62
2021/10/26 06:19:24;;;;;;;16.90;11.10;;;;;;;7.35;45.68;102134.17;117378;1186;23472;-62
2021/10/26 06:21:52;;;;;;;21.80;10.60;;;;;;;7.51;45.74;102131.98;117277;1186;22930;-62
2021/10/26 06:24:23;;;;;;;17.20;10.20;;;;;;;7.66;45.61;102130.48;117319;1183;23484;-63
2021/10/26 06:26:51;;;;;;;13.70;9.00;;;;;;;7.81;45.72;102128.61;117332;1183;22935;-62
2021/10/26 06:29:20;;;;;;;15.80;9.70;;;;;;;7.95;45.76;102131.09;117284;1186;23643;-63
2021/10/26 06:31:48;;;;;;;19.50;9.00;;;;;;;8.09;45.65;102129.02;117356;1182;21863;-62
2021/10/26 06:34:17;;;;;;;18.90;9.30;;;;;;;8.22;45.69;102131.27;117356;1186;21859;-67
2021/10/26 06:36:46;;;;;;;12.40;8.30;;;;;;;8.37;45.78;102123.95;117444;1182;21880;-64
2021/10/26 06:39:14;;;;;;;12.50;8.00;;;;;;;8.50;45.91;102121.65;117333;1186;21858;-62
2021/10/26 06:41:42;;;;;;;12.50;8.10;;;;;;;8.61;45.76;102121.77;118802;1184;22915;-58
2021/10/26 06:44:10;;;;;;;15.50;8.90;;;;;;;8.71;45.84;102125.16;117389;1185;23444;-58
2021/10/26 06:46:38;;;;;;;11.90;8.10;;;;;;;8.83;45.85;102126.48;117355;1185;23479;-58
2021/10/26 06:49:07;;;;;;;14.60;8.80;;;;;;;8.93;45.74;102124.95;117026;1184;21865;-62
2021/10/26 06:51:36;;;;;;;16.00;9.00;;;;;;;9.04;45.81;102122.20;117337;1186;23442;-62
2021/10/26 06:54:04;;;;;;;13.40;8.10;;;;;;;9.14;45.78;102123.13;117336;1186;21916;-58
2021/10/26 06:56:33;;;;;;;12.10;8.00;;;;;;;9.25;45.78;102123.02;117437;1183;22631;-56
2021/10/26 06:59:01;;;;;;;28.90;9.80;;;;;;;9.35;45.83;102120.23;117292;1184;23471;-58
2021/10/26 07:01:29;;;;;;;15.20;8.90;;;;;;;9.47;45.98;102118.37;117313;1186;23548;-62
2021/10/26 07:03:58;;;;;;;16.40;8.90;;;;;;;9.59;45.95;102116.51;117312;1185;23672;-58
2021/10/26 07:06:26;;;;;;;13.20;8.10;;;;;;;9.71;45.90;102115.14;117381;1183;24138;-58
2021/10/26 07:08:55;;;;;;;13.90;7.60;;;;;;;9.82;45.95;102111.86;117364;1185;22918;-63
2021/10/26 07:11:23;;;;;;;12.20;7.60;;;;;;;9.86;46.18;102108.60;117354;1185;23445;-62
2021/10/26 07:13:52;;;;;;;10.20;7.40;;;;;;;9.87;46.36;102106.86;117301;1183;21873;-58
2021/10/26 07:16:21;;;;;;;10.10;7.00;;;;;;;9.95;46.34;102109.80;117516;1186;23444;-62
2021/10/26 07:18:49;;;;;;;11.70;7.10;;;;;;;10.05;46.44;102114.20;117333;1185;22164;-63
2021/10/26 07:21:21;;;;;;;11.10;6.70;;;;;;;10.16;46.50;102108.08;117442;1185;23725;-59
2021/10/26 07:23:50;;;;;;;10.40;7.00;;;;;;;10.24;46.38;102106.45;117324;1186;22900;-63
2021/10/26 07:26:21;;;;;;;11.40;7.50;;;;;;;10.43;46.37;102103.27;117300;1186;22890;-59
2021/10/26 07:29:06;;;;;;;10.50;7.20;;;;;;;10.66;46.16;102101.70;117321;1185;22897;-59
2021/10/26 07:31:42;;;;;;;11.70;7.20;;;;;;;10.67;46.29;102100.14;117192;1183;21935;-64
2021/10/26 07:34:13;;;;;;;11.40;7.10;;;;;;;10.65;46.29;102099.05;117345;1185;24242;-61
2021/10/26 07:36:46;;;;;;;17.10;6.30;;;;;;;10.73;46.40;102096.89;117413;1182;21870;-63
2021/10/26 07:41:49;;;;;;;13.00;6.90;;;;;;;10.91;46.38;102093.45;117378;1183;23652;-63
2021/10/26 07:44:17;;;;;;;9.10;6.40;;;;;;;11.06;46.31;102099.63;117318;1183;22410;-64
2021/10/26 07:46:45;;;;;;;10.50;6.50;;;;;;;11.30;46.06;102095.70;118020;1182;23452;-58
2021/10/26 07:49:13;;;;;;;10.80;6.20;;;;;;;11.38;45.92;102094.77;117319;1182;22756;-59
2021/10/26 07:51:43;;;;;;;8.40;5.70;;;;;;;11.47;46.13;102092.41;117366;1182;23513;-63
2021/10/26 07:54:12;;;;;;;10.00;5.90;;;;;;;11.56;46.08;102094.59;117494;1186;23477;-59
2021/10/26 07:56:40;;;;;;;8.90;5.90;;;;;;;11.65;46.04;102092.24;117324;1182;22908;-58
2021/10/26 07:59:08;;;;;;;11.20;5.70;;;;;;;11.77;46.00;102087.79;117309;1182;21863;-58
2021/10/26 08:01:37;;;;;;;9.60;5.60;;;;;;;11.87;45.97;102088.61;117377;1186;23474;-63
2021/10/26 08:04:06;;;;;;;8.70;5.70;;;;;;;11.96;46.23;102085.34;117354;1184;21910;-60
2021/10/26 08:06:34;;;;;;;11.10;5.60;;;;;;;12.09;45.99;102078.63;117346;1182;21855;-58
2021/10/26 08:09:03;;;;;;;8.30;5.40;;;;;;;12.21;45.82;102079.60;117348;1182;23493;-62
2021/10/26 08:11:32;;;;;;;10.20;5.40;;;;;;;12.33;45.77;102078.64;117381;1183;23548;-58
2021/10/26 08:14:01;;;;;;;9.40;5.50;;;;;;;12.43;45.98;102079.60;117424;1182;23541;-63
2021/10/26 08:16:29;;;;;;;29.80;5.80;;;;;;;12.52;45.85;102073.67;117345;1185;21858;-62
2021/10/26 08:18:58;;;;;;;13.10;5.70;;;;;;;12.61;45.96;102071.42;117348;1184;23556;-62
2021/10/26 08:21:27;;;;;;;13.70;7.40;;;;;;;12.70;45.83;102068.84;117459;1186;21865;-58
2021/10/26 08:23:55;;;;;;;13.20;7.20;;;;;;;12.79;45.92;102072.42;117389;1182;21899;-63
2021/10/26 08:26:28;;;;;;;9.20;6.00;;;;;;;12.87;45.91;102070.52;117389;1186;21858;-59
2021/10/26 08:29:05;;;;;;;12.80;6.40;;;;;;;12.91;45.97;102070.02;117381;1182;22941;-64
2021/10/26 08:31:43;;;;;;;13.30;7.20;;;;;;;12.99;45.93;102070.59;117407;1182;23455;-62
2021/10/26 08:34:30;;;;;;;8.90;5.30;;;;;;;13.09;45.91;102070.45;117424;1184;22045;-63
2021/10/26 08:36:58;;;;;;;9.40;4.40;;;;;;;13.19;45.85;102067.67;117337;1182;23548;-60
2021/10/26 08:39:27;;;;;;;8.60;4.10;;;;;;;13.26;45.74;102069.98;117443;1183;23469;-60
2021/10/26 08:41:56;;;;;;;10.20;4.20;;;;;;;13.32;45.84;102058.73;117381;1184;21847;-60
2021/10/26 08:44:25;;;;;;;6.60;3.80;;;;;;;13.46;45.94;102063.02;117406;1185;21858;-64
2021/10/26 08:46:53;;;;;;;8.80;4.20;;;;;;;13.73;46.21;102057.44;117376;1186;21867;-60
2021/10/26 08:49:22;;;;;;;7.30;4.10;;;;;;;14.06;46.36;102061.34;117261;1186;23884;-60
2021/10/26 08:51:53;;;;;;;8.40;3.50;;;;;;;14.36;46.19;102054.98;117364;1185;23496;-60
2021/10/26 08:54:22;;;;;;;6.40;3.10;;;;;;;14.57;46.21;102049.28;117472;1182;22975;-63
2021/10/26 08:56:50;;;;;;;7.10;3.20;;;;;;;14.80;46.14;102051.20;117298;1185;21861;-60
2021/10/26 08:59:22;;;;;;;5.80;3.40;;;;;;;14.99;46.05;102046.90;117327;1184;21858;-63
2021/10/26 09:01:55;;;;;;;8.00;3.30;;;;;;;15.19;46.03;102044.15;117428;1176;21897;-63
2021/10/26 09:04:23;;;;;;;;;;;;;;;15.38;46.01;102040.86;117431;1182;23429;-63
2021/10/26 09:06:59;;;;;;;7.20;3.30;;;;;;;15.50;45.81;102042.38;117399;1182;23493;-62
2021/10/26 09:09:28;;;;;;;5.90;3.40;;;;;;;15.53;45.48;102045.19;117462;1179;23442;-62
2021/10/26 09:17:54;;;;;;;8.20;3.40;;;;;;;15.49;45.33;102038.67;117442;1185;21867;-59
2021/10/26 09:20:26;;;;;;;17.00;4.20;;;;;;;15.54;45.43;102033.16;117368;1186;22890;-59
2021/10/26 09:22:56;;;;;;;5.90;2.70;;;;;;;15.67;45.51;102029.18;117312;1185;21863;-61
2021/10/26 09:25:36;;;;;;;7.00;3.50;;;;;;;15.80;45.49;102023.95;117355;1185;22924;-61
2021/10/26 09:28:14;;;;;;;11.40;3.30;;;;;;;16.02;45.64;102027.52;117310;1186;21863;-59
2021/10/26 09:30:56;;;;;;;7.80;3.70;;;;;;;16.28;45.61;102023.04;117350;1182;22029;-59
2021/10/26 09:33:33;;;;;;;6.60;3.20;;;;;;;16.40;45.35;102019.02;117420;1182;23608;-59
2021/10/26 09:36:27;;;;;;;6.40;3.00;;;;;;;16.50;45.38;102016.08;117421;1182;21858;-60
2021/10/26 09:39:09;;;;;;;8.10;3.30;;;;;;;16.56;45.13;102016.55;117415;1182;22913;-59
2021/10/26 09:41:57;;;;;;;8.00;3.20;;;;;;;16.50;44.88;102012.17;117470;1185;24152;-62
2021/10/26 09:44:46;;;;;;;6.90;3.00;;;;;;;16.37;44.70;102002.03;117510;1183;22734;-59
2021/10/26 09:47:19;;;;;;;6.80;3.00;;;;;;;16.24;44.65;102003.94;117496;1183;21855;-62
2021/10/26 09:50:02;;;;;;;4.40;2.80;;;;;;;16.14;44.71;102000.84;117529;1185;21870;-59
2021/10/26 09:52:32;;;;;;;5.10;2.90;;;;;;;16.12;44.80;101998.56;117426;1185;22453;-59
2021/10/26 09:55:24;;;;;;;7.50;2.80;;;;;;;16.13;44.77;101994.13;117528;1186;21860;-62
2021/10/26 09:57:56;;;;;;;7.90;2.80;;;;;;;16.17;44.74;101993.20;117486;1183;23442;-62
2021/10/26 10:00:37;;;;;;;5.30;3.20;;;;;;;16.17;44.71;101987.35;117376;1186;21862;-58
2021/10/26 10:03:11;;;;;;;5.80;2.90;;;;;;;16.15;44.48;101986.15;117393;1181;21880;-61
2021/10/26 10:05:43;;;;;;;4.70;2.80;;;;;;;16.15;44.52;101987.20;117415;1183;23439;-58
2021/10/26 10:08:22;;;;;;;6.40;3.50;;;;;;;16.12;44.46;101985.46;117401;1183;23451;-62
2021/10/26 10:10:55;;;;;;;5.80;3.50;;;;;;;16.04;44.38;101978.81;117529;1181;21891;-59
2021/10/26 10:13:23;;;;;;;6.00;3.10;;;;;;;15.99;44.38;101975.50;117425;1183;21896;-58
2021/10/26 10:15:51;;;;;;;5.00;3.00;;;;;;;15.90;44.36;101972.20;117583;1185;21858;-59
2021/10/26 10:18:20;;;;;;;6.60;3.50;;;;;;;15.86;44.48;101971.70;117485;1183;23567;-59
2021/10/26 10:20:52;;;;;;;6.60;3.10;;;;;;;15.86;44.27;101967.10;117493;1182;22622;-59
2021/10/26 10:23:22;;;;;;;5.70;2.90;;;;;;;15.82;44.42;101964.11;117409;1182;22638;-58
2021/10/26 10:25:51;;;;;;;5.30;3.00;;;;;;;15.78;44.26;101961.32;117569;1185;23442;-61
2021/10/26 10:28:30;;;;;;;5.50;2.70;;;;;;;15.76;44.31;101953.38;117538;1180;22924;-59
2021/10/26 10:30:59;;;;;;;6.20;3.50;;;;;;;15.81;44.37;101952.97;117518;1183;23478;-62
2021/10/26 10:33:29;;;;;;;7.90;3.60;;;;;;;15.88;44.43;101948.33;117643;1182;23464;-59
2021/10/26 10:35:58;;;;;;;4.90;2.70;;;;;;;15.97;44.35;101944.89;117609;1179;22966;-58
2021/10/26 10:38:32;;;;;;;4.80;3.00;;;;;;;16.06;44.40;101941.42;117377;1183;23570;-62
2021/10/26 10:41:32;;;;;;;4.70;2.40;;;;;;;16.16;44.37;101933.71;117944;1185;22638;-59
2021/10/26 10:44:04;;;;;;;5.70;2.80;;;;;;;16.32;44.46;101931.05;117431;1185;24203;-62
2021/10/26 10:46:43;;;;;;;6.30;3.30;;;;;;;16.51;44.50;101930.13;117403;1182;24177;-61
2021/10/26 10:49:24;;;;;;;4.30;2.40;;;;;;;16.72;44.55;101928.27;117406;1183;21858;-59
2021/10/26 10:52:05;;;;;;;4.60;2.60;;;;;;;16.97;44.55;101923.70;117348;1185;22649;-59
2021/10/26 10:54:50;;;;;;;5.90;2.80;;;;;;;17.21;44.51;101917.48;117395;1176;23621;-62
2021/10/26 10:57:32;;;;;;;6.10;2.70;;;;;;;17.41;44.47;101919.86;117419;1185;23547;-62
2021/10/26 11:00:22;;;;;;;5.80;2.90;;;;;;;17.51;44.26;101919.14;117397;1183;23573;-62
2021/10/26 11:02:55;;;;;;;6.80;3.10;;;;;;;17.54;44.15;101912.89;117357;1183;21858;-59
2021/10/26 11:05:33;;;;;;;9.30;3.40;;;;;;;17.59;44.05;101911.38;117371;1184;23679;-62
2021/10/26 11:08:14;;;;;;;6.20;3.00;;;;;;;17.64;44.10;101910.06;117437;1186;23469;-60
2021/10/26 11:10:49;;;;;;;4.20;2.60;;;;;;;17.66;44.04;101905.58;117351;1182;23525;-62
2021/10/26 11:13:19;;;;;;;5.70;2.60;;;;;;;17.68;44.00;101901.65;117353;1182;22061;-60
2021/10/26 11:15:51;;;;;;;4.60;2.50;;;;;;;17.65;43.80;101896.55;117328;1184;23544;-62
2021/10/26 11:18:39;;;;;;;6.40;3.10;;;;;;;17.52;43.62;101899.61;118316;1184;21862;-64
2021/10/26 11:21:28;;;;;;;6.20;2.70;;;;;;;17.32;43.48;101899.40;117951;1183;24151;-60
2021/10/26 11:24:01;;;;;;;5.50;2.40;;;;;;;17.03;43.39;101900.02;117311;1177;21855;-59
2021/10/26 11:26:37;;;;;;;5.90;2.80;;;;;;;16.83;43.39;101898.70;117319;1184;21932;-60
2021/10/26 11:29:07;;;;;;;6.30;3.10;;;;;;;16.71;43.33;101894.42;117434;1184;22325;-60
2021/10/26 11:31:49;;;;;;;5.60;3.00;;;;;;;16.66;43.53;101893.98;117408;1185;24145;-62
2021/10/26 11:34:22;;;;;;;10.10;2.80;;;;;;;16.65;43.56;101890.08;117385;1186;21901;-60
2021/10/26 11:37:07;;;;;;;3.70;2.50;;;;;;;16.61;43.51;101888.71;117285;1182;23687;-59
2021/10/26 11:39:37;;;;;;;5.60;2.60;;;;;;;16.52;43.46;101891.14;117358;1180;23508;-62
2021/10/26 11:42:11;;;;;;;12.30;3.40;;;;;;;16.44;43.42;101880.27;117446;1182;22859;-59
2021/10/26 11:44:40;;;;;;;4.30;2.30;;;;;;;16.41;43.47;101877.64;117372;1182;21859;-63